Time;durP1;ratioP1;P1;durP2;ratioP2;P2;SDS_P1;SDS_P2;PMS_P1;PMS_P2;Temp;Humidity;BMP_temperature;BMP_pressure;BME280_temperature;BME280_humidity;BME280_pressure;Samples;Min_cycle;Max_cycle;Signal;HPM_P1;HPM_P2
2021/06/09 00:00:55;;;;;;;20.13;18.20;;;15.80;99.90;;;;;;5109403;28;20480;-69
2021/06/09 00:03:22;;;;;;;19.80;17.90;;;15.80;99.90;;;;;;5109640;28;20467;-69
2021/06/09 00:05:49;;;;;;;18.70;16.80;;;15.70;99.90;;;;;;5109121;28;21110;-69
2021/06/09 00:08:16;;;;;;;18.07;16.30;;;15.70;99.90;;;;;;5109260;28;20468;-69
2021/06/09 00:10:42;;;;;;;18.87;16.00;;;15.70;99.90;;;;;;5108491;28;20484;-69
2021/06/09 00:13:09;;;;;;;18.03;16.43;;;15.60;99.90;;;;;;5109369;28;20840;-69
2021/06/09 00:15:36;;;;;;;17.67;15.90;;;15.60;99.90;;;;;;5108947;28;20467;-69
2021/06/09 00:18:04;;;;;;;19.37;17.47;;;15.60;99.90;;;;;;5109534;28;20850;-69
2021/06/09 00:20:31;;;;;;;19.70;17.80;;;15.50;99.90;;;;;;5108882;28;20481;-69
2021/06/09 00:22:57;;;;;;;18.53;16.63;;;15.50;99.90;;;;;;5108437;28;21121;-69
2021/06/09 00:25:23;;;;;;;17.73;15.93;;;15.50;99.90;;;;;;5108944;28;20468;-69
2021/06/09 00:27:52;;;;;;;19.33;17.20;;;15.50;99.90;;;;;;5108662;28;20938;-69
2021/06/09 00:30:23;;;;;;;18.60;16.60;;;15.50;99.90;;;;;;5108903;28;20453;-69
2021/06/09 00:32:49;;;;;;;19.97;17.87;;;15.50;99.90;;;;;;5108720;28;20457;-70
2021/06/09 00:35:17;;;;;;;19.10;17.23;;;15.40;99.90;;;;;;5108691;28;21099;-69
2021/06/09 00:37:43;;;;;;;18.23;16.43;;;15.40;99.90;;;;;;5109015;28;20461;-69
2021/06/09 00:40:11;;;;;;;16.70;15.10;;;15.40;99.90;;;;;;5108749;28;20473;-69
2021/06/09 00:42:38;;;;;;;18.20;16.30;;;15.30;99.90;;;;;;5108723;28;20492;-69
2021/06/09 00:45:05;;;;;;;17.23;15.43;;;15.30;99.90;;;;;;5109221;28;20488;-69
2021/06/09 00:47:31;;;;;;;18.70;16.87;;;15.20;99.90;;;;;;5109013;28;20878;-69
2021/06/09 00:49:57;;;;;;;19.97;17.90;;;15.20;99.90;;;;;;5109244;28;20960;-69
2021/06/09 00:52:26;;;;;;;18.00;15.97;;;15.20;99.90;;;;;;5108483;28;20485;-69
2021/06/09 00:54:53;;;;;;;18.10;16.40;;;15.20;99.90;;;;;;5108958;28;20878;-69
2021/06/09 00:57:20;;;;;;;17.97;16.17;;;15.10;99.90;;;;;;5108632;28;20505;-69
2021/06/09 00:59:47;;;;;;;17.17;15.57;;;15.10;99.90;;;;;;5108553;28;20495;-69
2021/06/09 01:02:14;;;;;;;15.40;14.00;;;15.10;99.90;;;;;;5108173;28;20489;-69
2021/06/09 01:04:40;;;;;;;17.93;16.03;;;15.10;99.90;;;;;;5108601;28;20461;-69
2021/06/09 01:07:09;;;;;;;18.70;16.77;;;15.10;99.90;;;;;;5108597;28;20464;-69
2021/06/09 01:09:36;;;;;;;17.93;16.23;;;15.00;99.90;;;;;;5108265;28;20840;-69
2021/06/09 01:12:04;;;;;;;18.20;16.40;;;15.00;99.90;;;;;;5108429;28;20485;-70
2021/06/09 01:14:31;;;;;;;19.07;16.80;;;15.00;99.90;;;;;;5109154;28;20456;-69
2021/06/09 01:16:57;;;;;;;17.67;15.93;;;15.00;99.90;;;;;;5111406;28;20461;-69
2021/06/09 01:19:23;;;;;;;18.77;16.87;;;15.00;99.90;;;;;;5109616;28;20487;-69
2021/06/09 01:21:51;;;;;;;18.27;16.40;;;14.90;99.90;;;;;;5110968;28;20480;-69
2021/06/09 01:24:20;;;;;;;19.20;17.37;;;15.00;99.90;;;;;;5111344;28;20483;-69
2021/06/09 01:26:46;;;;;;;18.37;16.47;;;15.00;99.90;;;;;;5092218;28;20845;-69
2021/06/09 01:29:44;;;;;;;18.70;16.70;;;15.00;99.90;;;;;;5091090;28;20484;-69
2021/06/09 01:32:10;;;;;;;18.53;16.73;;;15.00;99.90;;;;;;5088066;28;20485;-69
2021/06/09 01:34:37;;;;;;;16.13;14.60;;;15.00;99.90;;;;;;5090889;28;20461;-69
2021/06/09 01:37:04;;;;;;;17.43;15.63;;;15.00;99.90;;;;;;5090375;28;20949;-69
2021/06/09 01:39:31;;;;;;;19.10;16.93;;;15.00;99.90;;;;;;5090773;28;21168;-69
2021/06/09 01:41:57;;;;;;;19.60;17.80;;;15.00;99.90;;;;;;5089982;28;20482;-69
2021/06/09 01:44:23;;;;;;;18.77;16.83;;;15.00;99.90;;;;;;5090722;28;20824;-69
2021/06/09 01:46:52;;;;;;;16.90;15.20;;;15.00;99.90;;;;;;5090595;28;20498;-69
2021/06/09 01:49:18;;;;;;;16.47;14.80;;;15.00;99.90;;;;;;5090544;28;20457;-69
2021/06/09 01:51:45;;;;;;;19.20;17.30;;;15.10;99.90;;;;;;5090182;28;21019;-69
2021/06/09 01:54:14;;;;;;;18.20;16.40;;;15.00;99.90;;;;;;5090268;28;20457;-69
2021/06/09 01:56:40;;;;;;;17.30;15.63;;;15.00;99.90;;;;;;5090620;28;20473;-69
2021/06/09 01:59:11;;;;;;;16.47;14.93;;;15.00;99.90;;;;;;5090176;28;21036;-69
2021/06/09 02:01:37;;;;;;;18.30;16.50;;;15.00;99.90;;;;;;5090119;28;20482;-69
2021/06/09 02:04:04;;;;;;;16.50;14.83;;;15.00;99.90;;;;;;5090451;28;20466;-69
2021/06/09 02:06:30;;;;;;;16.97;15.33;;;15.00;99.90;;;;;;5090321;28;20465;-69
2021/06/09 02:08:56;;;;;;;18.23;16.50;;;15.00;99.90;;;;;;5091798;28;20511;-70
2021/06/09 02:11:24;;;;;;;17.00;15.17;;;15.00;99.90;;;;;;5094173;28;20484;-70
2021/06/09 02:13:51;;;;;;;18.00;16.27;;;15.00;99.90;;;;;;5094672;28;20461;-70
2021/06/09 02:16:17;;;;;;;18.10;16.27;;;15.00;99.90;;;;;;5094670;28;20457;-69
2021/06/09 02:18:43;;;;;;;19.30;17.43;;;15.00;99.90;;;;;;5094484;28;20484;-70
2021/06/09 02:21:10;;;;;;;19.97;17.93;;;15.00;99.90;;;;;;5094117;28;20510;-69
2021/06/09 02:23:36;;;;;;;18.93;17.13;;;15.00;99.90;;;;;;5094369;28;20522;-69
2021/06/09 02:26:03;;;;;;;18.60;16.77;;;15.00;99.90;;;;;;5094294;28;20457;-70
2021/06/09 02:28:33;;;;;;;19.50;17.57;;;15.00;99.90;;;;;;5094237;28;20484;-69
2021/06/09 02:31:00;;;;;;;17.33;15.47;;;15.00;99.90;;;;;;5093919;28;20484;-69
2021/06/09 02:33:26;;;;;;;20.30;18.30;;;15.00;99.90;;;;;;5094167;28;20476;-69
2021/06/09 02:35:55;;;;;;;18.70;16.77;;;15.00;99.90;;;;;;5094067;28;20457;-70
2021/06/09 02:38:21;;;;;;;20.67;18.60;;;15.00;99.90;;;;;;5094291;28;20458;-69
2021/06/09 02:40:49;;;;;;;20.07;17.97;;;15.10;99.90;;;;;;5093388;28;20504;-70
2021/06/09 02:43:16;;;;;;;18.83;17.10;;;15.10;99.90;;;;;;5094291;28;20487;-69
2021/06/09 02:45:49;;;;;;;18.60;16.80;;;15.00;99.90;;;;;;5094091;28;20548;-69
2021/06/09 02:48:17;;;;;;;20.60;15.70;;;15.10;99.90;;;;;;5094214;28;20468;-69
2021/06/09 02:50:44;;;;;;;18.20;16.40;;;15.00;99.90;;;;;;5093525;28;20499;-69
2021/06/09 02:53:15;;;;;;;16.73;15.00;;;15.10;99.90;;;;;;5093883;28;20959;-69
2021/06/09 02:55:52;;;;;;;16.87;15.13;;;15.00;99.90;;;;;;5094028;28;20457;-69
2021/06/09 02:58:30;;;;;;;16.43;14.77;;;15.00;99.90;;;;;;5093763;28;20457;-69
2021/06/09 03:01:06;;;;;;;17.97;15.77;;;15.00;99.90;;;;;;5093302;28;20480;-69
2021/06/09 03:03:43;;;;;;;17.00;15.37;;;15.00;99.90;;;;;;5093664;28;20465;-69
2021/06/09 03:06:18;;;;;;;17.50;15.80;;;15.10;99.90;;;;;;5093655;28;20468;-69
2021/06/09 03:08:57;;;;;;;17.10;15.23;;;15.00;99.90;;;;;;5093411;28;20472;-69
2021/06/09 03:11:29;;;;;;;17.73;15.97;;;15.10;99.90;;;;;;5093279;28;20469;-69
2021/06/09 03:14:03;;;;;;;15.30;13.70;;;15.10;99.90;;;;;;5093287;28;20492;-69
2021/06/09 03:16:37;;;;;;;16.17;14.63;;;15.10;99.90;;;;;;5093682;28;20453;-69
2021/06/09 03:19:08;;;;;;;17.77;15.97;;;15.00;99.90;;;;;;5093132;28;20476;-69
2021/06/09 03:21:41;;;;;;;16.80;15.20;;;15.00;99.90;;;;;;5091641;28;20477;-69
2021/06/09 03:24:13;;;;;;;17.23;15.60;;;15.00;99.90;;;;;;5093285;28;20472;-69
2021/06/09 03:26:50;;;;;;;17.10;15.50;;;15.00;99.90;;;;;;5093181;28;20453;-69
2021/06/09 03:29:27;;;;;;;16.00;14.40;;;15.00;99.90;;;;;;5093638;28;20523;-69
2021/06/09 03:31:58;;;;;;;17.87;16.13;;;15.00;99.90;;;;;;5092479;28;20484;-69
2021/06/09 03:34:28;;;;;;;17.77;16.07;;;15.00;99.90;;;;;;5086832;28;20860;-69
2021/06/09 03:36:59;;;;;;;16.77;15.17;;;15.00;99.90;;;;;;5081081;28;20454;-69
2021/06/09 03:39:26;;;;;;;16.97;15.37;;;15.00;99.90;;;;;;5090059;28;20543;-70
2021/06/09 03:41:56;;;;;;;16.10;14.40;;;15.00;99.90;;;;;;5090295;28;20490;-69
2021/06/09 03:44:27;;;;;;;16.37;14.60;;;15.00;99.90;;;;;;5091081;28;20470;-70
2021/06/09 03:46:56;;;;;;;15.90;14.27;;;15.10;99.90;;;;;;5090942;28;20460;-70
2021/06/09 03:49:24;;;;;;;16.10;14.60;;;15.00;99.90;;;;;;5090720;28;20492;-69
2021/06/09 03:51:52;;;;;;;17.50;15.73;;;15.10;99.90;;;;;;5090760;28;20478;-70
2021/06/09 03:54:19;;;;;;;16.77;15.07;;;15.10;99.90;;;;;;5092064;28;20829;-70
2021/06/09 03:56:48;;;;;;;18.03;16.23;;;15.10;99.90;;;;;;5087364;28;20458;-69
2021/06/09 03:59:15;;;;;;;16.10;14.50;;;15.00;99.90;;;;;;5083010;28;20499;-69
2021/06/09 04:01:42;;;;;;;16.53;15.00;;;15.10;99.90;;;;;;5081268;28;20474;-69
2021/06/09 04:04:20;;;;;;;16.00;14.00;;;15.10;99.90;;;;;;5075549;28;20465;-69
2021/06/09 04:06:47;;;;;;;17.90;16.10;;;15.10;99.90;;;;;;5071784;28;20462;-69
2021/06/09 04:09:18;;;;;;;15.87;14.27;;;15.10;99.90;;;;;;5072168;28;20460;-69
2021/06/09 04:11:46;;;;;;;17.90;15.97;;;15.10;99.90;;;;;;5071653;28;20506;-70
2021/06/09 04:14:18;;;;;;;14.87;13.43;;;15.20;99.90;;;;;;5073062;28;20818;-71
2021/06/09 04:16:45;;;;;;;17.63;15.93;;;15.20;99.90;;;;;;5071713;28;20466;-71
2021/06/09 04:19:15;;;;;;;15.93;14.43;;;15.20;99.90;;;;;;5071976;28;20490;-71
2021/06/09 04:21:41;;;;;;;17.10;15.43;;;15.20;99.90;;;;;;5071407;28;20823;-70
2021/06/09 04:24:08;;;;;;;17.47;15.73;;;15.20;99.90;;;;;;5071837;28;20469;-70
2021/06/09 04:26:37;;;;;;;18.53;16.50;;;15.30;99.90;;;;;;5071742;28;20466;-70
2021/06/09 04:29:04;;;;;;;16.67;15.07;;;15.30;99.90;;;;;;5071622;28;20516;-70
2021/06/09 04:31:33;;;;;;;17.67;15.87;;;15.30;99.90;;;;;;5070925;28;20471;-70
2021/06/09 04:33:59;;;;;;;16.70;15.00;;;15.30;99.90;;;;;;5071266;28;20461;-70
2021/06/09 04:36:27;;;;;;;16.97;15.20;;;15.40;99.90;;;;;;5071787;28;20461;-70
2021/06/09 04:38:53;;;;;;;15.83;14.37;;;15.40;99.90;;;;;;5071071;28;20462;-70
2021/06/09 04:41:20;;;;;;;17.20;15.47;;;15.40;99.90;;;;;;5071222;28;20482;-70
2021/06/09 04:43:47;;;;;;;18.73;16.83;;;15.40;99.90;;;;;;5071132;28;20533;-70
2021/06/09 04:46:18;;;;;;;19.47;17.57;;;15.50;99.90;;;;;;5071365;28;20465;-70
2021/06/09 04:48:56;;;;;;;19.37;17.47;;;15.50;99.90;;;;;;5081392;28;20446;-70
2021/06/09 04:51:30;;;;;;;16.70;15.10;;;15.50;99.90;;;;;;5081127;28;20466;-70
2021/06/09 04:53:56;;;;;;;21.57;19.43;;;15.60;99.90;;;;;;5080061;28;20469;-70
2021/06/09 04:56:23;;;;;;;19.33;17.43;;;15.60;99.90;;;;;;5080785;28;20795;-70
2021/06/09 04:58:50;;;;;;;20.27;18.27;;;15.70;99.90;;;;;;5081631;28;20471;-70
2021/06/09 05:01:16;;;;;;;19.67;17.77;;;15.70;99.90;;;;;;5079761;28;20888;-70
2021/06/09 05:03:42;;;;;;;18.90;17.10;;;15.80;99.90;;;;;;5080587;28;20453;-70
2021/06/09 05:06:09;;;;;;;18.83;16.83;;;15.80;99.90;;;;;;5081124;28;20465;-70
2021/06/09 05:08:36;;;;;;;20.10;18.07;;;15.90;99.90;;;;;;5082403;28;20825;-70
2021/06/09 05:11:05;;;;;;;17.70;16.10;;;15.90;99.90;;;;;;5089349;28;20831;-70
2021/06/09 05:13:34;;;;;;;19.80;17.17;;;15.90;99.90;;;;;;5080601;28;20516;-70
2021/06/09 05:16:04;;;;;;;16.93;15.30;;;15.90;99.90;;;;;;5079001;28;20727;-70
2021/06/09 05:18:36;;;;;;;19.03;17.13;;;16.00;99.90;;;;;;5080822;28;20542;-70
2021/06/09 05:21:04;;;;;;;17.97;16.37;;;16.00;99.90;;;;;;5087181;28;20582;-70
2021/06/09 05:23:34;;;;;;;19.50;17.70;;;16.10;99.90;;;;;;5083131;28;20827;-70
2021/06/09 05:26:04;;;;;;;19.10;17.40;;;16.10;99.90;;;;;;5079683;28;20465;-70
2021/06/09 05:28:34;;;;;;;19.33;17.53;;;16.20;99.90;;;;;;5071458;28;20533;-70
2021/06/09 05:31:01;;;;;;;18.50;16.67;;;16.30;99.90;;;;;;5070182;28;20875;-71
2021/06/09 05:33:30;;;;;;;19.17;17.27;;;16.30;99.90;;;;;;5070457;28;20840;-70
2021/06/09 05:35:57;;;;;;;20.20;18.20;;;16.30;99.90;;;;;;5072611;28;20461;-70
2021/06/09 05:38:24;;;;;;;18.77;17.00;;;16.40;99.90;;;;;;5090061;28;20465;-71
2021/06/09 05:40:52;;;;;;;18.80;16.90;;;16.40;99.90;;;;;;5088339;28;20513;-70
2021/06/09 05:43:21;;;;;;;21.03;18.93;;;16.40;99.90;;;;;;5088535;28;20487;-70
2021/06/09 05:45:49;;;;;;;19.90;18.00;;;16.50;99.90;;;;;;5089077;28;20937;-70
2021/06/09 05:48:15;;;;;;;21.00;19.00;;;16.50;99.90;;;;;;5089229;28;20458;-70
2021/06/09 05:50:42;;;;;;;18.43;16.63;;;16.60;99.90;;;;;;5088936;28;20474;-70
2021/06/09 05:53:08;;;;;;;20.00;17.83;;;16.70;99.90;;;;;;5089216;28;20548;-70
2021/06/09 05:55:35;;;;;;;18.37;16.67;;;16.60;99.90;;;;;;5088895;28;20967;-70
2021/06/09 05:58:04;;;;;;;18.53;16.83;;;16.70;99.90;;;;;;5089270;28;20464;-70
2021/06/09 06:00:33;;;;;;;18.37;16.50;;;16.70;99.90;;;;;;5089022;28;20489;-70
2021/06/09 06:03:04;;;;;;;18.73;17.03;;;16.70;99.90;;;;;;5088849;28;20569;-71
2021/06/09 06:05:35;;;;;;;18.57;16.77;;;16.80;99.90;;;;;;5089408;28;21025;-70
2021/06/09 06:08:01;;;;;;;17.63;15.83;;;16.80;99.90;;;;;;5088686;28;20851;-71
2021/06/09 06:10:27;;;;;;;17.70;15.37;;;16.90;99.90;;;;;;5089046;28;20450;-71
2021/06/09 06:12:56;;;;;;;17.57;15.77;;;16.90;99.90;;;;;;5088482;28;20462;-71
2021/06/09 06:15:24;;;;;;;15.43;13.67;;;16.90;99.90;;;;;;5089189;28;20464;-71
2021/06/09 06:17:52;;;;;;;16.50;15.00;;;17.00;99.90;;;;;;5088406;28;20510;-71
2021/06/09 06:20:20;;;;;;;17.60;15.80;;;17.10;99.90;;;;;;5085605;28;20509;-71
2021/06/09 06:22:50;;;;;;;16.27;14.43;;;17.10;99.90;;;;;;5086896;28;20493;-71
2021/06/09 06:28:07;;;;;;;14.60;13.20;;;17.20;99.90;;;;;;5087070;28;20464;-71
2021/06/09 06:30:33;;;;;;;16.80;14.27;;;17.20;99.90;;;;;;5086557;28;20461;-71
2021/06/09 06:33:13;;;;;;;15.67;14.27;;;17.30;99.90;;;;;;5086470;28;21012;-71
2021/06/09 06:35:40;;;;;;;16.40;14.90;;;17.40;99.90;;;;;;5087081;28;20662;-71
2021/06/09 06:38:10;;;;;;;16.00;14.43;;;17.40;99.90;;;;;;5086835;28;20458;-71
2021/06/09 06:40:41;;;;;;;16.40;14.70;;;17.50;99.90;;;;;;5086863;28;20485;-71
2021/06/09 06:43:15;;;;;;;16.23;14.73;;;17.50;99.90;;;;;;5086392;28;20468;-71
2021/06/09 06:45:45;;;;;;;16.20;14.60;;;17.50;99.90;;;;;;5087038;28;20890;-71
2021/06/09 06:48:25;;;;;;;15.47;14.17;;;17.60;99.90;;;;;;5086443;28;20466;-71
2021/06/09 06:50:52;;;;;;;16.83;15.27;;;17.60;99.90;;;;;;5086560;28;20477;-71
2021/06/09 06:53:18;;;;;;;15.70;14.20;;;17.60;99.90;;;;;;5086902;28;21022;-71
2021/06/09 06:55:45;;;;;;;17.20;15.40;;;17.80;99.90;;;;;;5089055;28;20453;-71
2021/06/09 06:58:11;;;;;;;16.07;14.57;;;17.80;99.90;;;;;;5090498;28;20459;-71
2021/06/09 07:00:39;;;;;;;13.67;12.40;;;17.80;99.90;;;;;;5090013;28;20492;-71
2021/06/09 07:03:09;;;;;;;14.73;13.37;;;17.90;99.90;;;;;;5090022;28;20511;-71
2021/06/09 07:05:46;;;;;;;15.70;14.20;;;18.00;99.90;;;;;;5090437;28;20457;-71
2021/06/09 07:08:13;;;;;;;15.53;14.03;;;18.00;99.90;;;;;;5090476;28;20457;-71
2021/06/09 07:10:41;;;;;;;16.33;14.90;;;18.10;99.90;;;;;;5090113;28;20584;-71
2021/06/09 07:13:08;;;;;;;17.90;14.40;;;18.20;99.90;;;;;;5089892;28;20572;-71
2021/06/09 07:15:39;;;;;;;14.90;13.40;;;18.40;99.90;;;;;;5090233;28;20496;-71
2021/06/09 07:18:07;;;;;;;16.97;15.27;;;18.50;99.90;;;;;;5089391;28;20467;-71
2021/06/09 07:20:34;;;;;;;16.30;14.70;;;18.60;99.90;;;;;;5090140;28;21039;-71
2021/06/09 07:23:03;;;;;;;14.97;13.57;;;18.80;99.90;;;;;;5089893;28;20511;-71
2021/06/09 07:25:31;;;;;;;17.33;15.77;;;18.90;99.90;;;;;;5089718;28;20458;-71
2021/06/09 07:28:09;;;;;;;16.30;14.60;;;19.00;99.90;;;;;;5089851;28;20820;-71
2021/06/09 07:30:37;;;;;;;13.73;12.53;;;19.00;99.90;;;;;;5089306;28;20960;-71
2021/06/09 07:33:05;;;;;;;15.60;14.23;;;19.10;99.90;;;;;;5089673;28;20469;-71
2021/06/09 07:35:35;;;;;;;16.40;14.93;;;19.20;99.90;;;;;;5089277;28;20461;-71
2021/06/09 07:38:08;;;;;;;18.10;16.43;;;19.30;99.90;;;;;;5088944;28;21051;-71
2021/06/09 07:40:39;;;;;;;18.57;16.83;;;19.40;99.90;;;;;;5089094;28;20558;-71
2021/06/09 07:43:08;;;;;;;18.17;16.27;;;19.50;99.90;;;;;;5089537;28;20520;-71
2021/06/09 07:45:36;;;;;;;17.50;15.93;;;19.60;99.90;;;;;;5091438;28;20457;-71
2021/06/09 07:48:04;;;;;;;16.37;14.70;;;19.60;99.90;;;;;;5090734;28;20868;-71
2021/06/09 07:50:34;;;;;;;18.37;16.67;;;19.60;99.90;;;;;;5090517;28;20527;-71
2021/06/09 07:53:06;;;;;;;16.83;15.23;;;19.80;99.90;;;;;;5091011;28;20457;-71
2021/06/09 07:55:33;;;;;;;17.07;15.53;;;19.80;99.90;;;;;;5091193;28;20465;-70
2021/06/09 07:58:00;;;;;;;16.17;14.47;;;20.00;99.90;;;;;;5090287;28;20457;-71
2021/06/09 08:00:27;;;;;;;15.00;13.60;;;20.00;99.90;;;;;;5090806;28;20481;-71
2021/06/09 08:02:56;;;;;;;15.40;13.80;;;20.10;99.90;;;;;;5090725;28;20918;-71
2021/06/09 08:05:23;;;;;;;16.57;14.87;;;20.20;99.90;;;;;;5090928;28;20480;-71
2021/06/09 08:07:50;;;;;;;15.60;14.20;;;20.40;99.90;;;;;;5089940;28;20551;-71
2021/06/09 08:10:18;;;;;;;14.50;13.00;;;20.50;99.90;;;;;;5091246;28;20457;-71
2021/06/09 08:12:45;;;;;;;15.13;13.77;;;20.60;99.90;;;;;;5090109;28;20960;-71
2021/06/09 08:15:13;;;;;;;15.00;13.50;;;20.60;99.90;;;;;;5090956;28;20457;-70
2021/06/09 08:17:44;;;;;;;15.50;14.00;;;20.70;99.90;;;;;;5090629;28;20462;-70
2021/06/09 08:20:12;;;;;;;14.53;13.20;;;20.70;99.90;;;;;;5086680;28;20485;-70
2021/06/09 08:22:41;;;;;;;15.57;12.93;;;20.80;99.90;;;;;;5088150;28;20482;-71
2021/06/09 08:25:08;;;;;;;14.87;13.37;;;20.90;99.90;;;;;;5088545;28;20465;-71
2021/06/09 08:27:36;;;;;;;15.97;14.37;;;20.80;99.90;;;;;;5088569;28;20469;-71
2021/06/09 08:30:04;;;;;;;14.20;12.80;;;20.90;99.90;;;;;;5088022;28;20527;-71
2021/06/09 08:32:30;;;;;;;14.63;13.33;;;21.00;99.90;;;;;;5089194;28;20474;-71
2021/06/09 08:34:57;;;;;;;13.90;12.60;;;21.00;99.90;;;;;;5087960;28;20506;-71
2021/06/09 08:37:27;;;;;;;14.90;13.40;;;21.10;99.90;;;;;;5088466;28;20467;-71
2021/06/09 08:39:54;;;;;;;15.23;13.87;;;21.10;99.90;;;;;;5088492;28;21051;-71
2021/06/09 08:42:26;;;;;;;13.47;12.10;;;21.20;99.90;;;;;;5086906;28;20539;-71
2021/06/09 08:44:55;;;;;;;15.30;13.80;;;21.30;99.90;;;;;;5088192;28;20549;-71
2021/06/09 08:47:22;;;;;;;15.17;13.70;;;21.40;99.90;;;;;;5087867;28;20462;-71
2021/06/09 08:49:50;;;;;;;15.10;13.33;;;21.50;99.90;;;;;;5087751;28;20460;-71
2021/06/09 08:52:16;;;;;;;15.93;14.53;;;21.50;99.90;;;;;;5087898;28;20473;-71
2021/06/09 08:54:46;;;;;;;15.07;13.67;;;21.50;99.90;;;;;;5087926;28;21000;-71
2021/06/09 08:57:22;;;;;;;15.30;14.00;;;21.40;99.90;;;;;;5087888;28;21074;-70
2021/06/09 08:59:51;;;;;;;15.20;13.70;;;21.50;99.90;;;;;;5087333;28;20533;-71
2021/06/09 09:02:20;;;;;;;15.53;14.13;;;21.60;99.90;;;;;;5087800;28;20489;-71
2021/06/09 09:04:52;;;;;;;17.43;15.87;;;21.80;99.90;;;;;;5087816;28;20814;-71
2021/06/09 09:07:23;;;;;;;14.30;13.00;;;21.90;99.90;;;;;;5088147;28;20468;-71
2021/06/09 09:09:50;;;;;;;14.57;13.33;;;22.00;99.90;;;;;;5087737;28;20462;-71
2021/06/09 09:12:16;;;;;;;15.90;14.23;;;22.10;99.90;;;;;;5086868;28;20486;-71
2021/06/09 09:14:43;;;;;;;15.03;13.20;;;22.30;99.90;;;;;;5087923;28;20458;-71
2021/06/09 09:17:15;;;;;;;14.93;13.50;;;22.30;99.90;;;;;;5087517;28;20501;-71
2021/06/09 09:19:45;;;;;;;15.80;14.30;;;22.50;99.90;;;;;;5087595;28;20481;-71
2021/06/09 09:22:17;;;;;;;14.40;13.00;;;22.60;99.90;;;;;;5087203;28;20528;-71
2021/06/09 09:24:47;;;;;;;13.83;12.53;;;22.70;99.90;;;;;;5087716;28;20467;-71
2021/06/09 09:27:23;;;;;;;14.27;13.07;;;22.80;99.90;;;;;;5087859;28;20956;-71
2021/06/09 09:30:00;;;;;;;15.40;14.10;;;22.70;99.90;;;;;;5087063;28;20970;-71
2021/06/09 09:32:26;;;;;;;15.80;14.30;;;22.80;99.90;;;;;;5087303;28;20492;-71
2021/06/09 09:35:04;;;;;;;16.50;14.90;;;22.80;99.90;;;;;;5087257;28;20457;-70
2021/06/09 09:37:32;;;;;;;15.33;14.03;;;22.80;99.90;;;;;;5087518;28;20902;-71
2021/06/09 09:40:14;;;;;;;14.77;13.43;;;22.90;99.90;;;;;;5087084;28;20478;-71
2021/06/09 09:42:42;;;;;;;16.53;15.10;;;23.00;99.90;;;;;;5086899;28;20485;-71
2021/06/09 09:45:17;;;;;;;14.50;13.10;;;23.10;99.90;;;;;;5087439;28;20468;-71
2021/06/09 09:47:44;;;;;;;12.97;11.73;;;23.30;99.90;;;;;;5086801;28;20956;-72
2021/06/09 09:50:37;;;;;;;15.20;13.77;;;23.30;99.90;;;;;;5087021;28;20471;-71
2021/06/09 09:53:18;;;;;;;14.20;12.87;;;23.50;99.90;;;;;;5086710;28;20465;-71
2021/06/09 09:55:55;;;;;;;13.10;12.00;;;23.50;99.90;;;;;;5086965;28;20461;-71
2021/06/09 09:58:22;;;;;;;13.10;11.80;;;23.60;99.90;;;;;;5087412;28;20460;-71
2021/06/09 10:00:50;;;;;;;13.40;12.13;;;23.60;99.90;;;;;;5086211;28;20492;-72
2021/06/09 10:03:18;;;;;;;13.67;12.47;;;23.70;99.90;;;;;;5087012;28;20481;-71
2021/06/09 10:05:47;;;;;;;14.40;13.10;;;23.70;99.90;;;;;;5087069;28;20465;-71
2021/06/09 10:08:17;;;;;;;13.83;12.63;;;23.90;99.90;;;;;;5087388;28;20830;-71
2021/06/09 10:10:47;;;;;;;14.10;12.80;;;24.00;99.90;;;;;;5086899;28;20474;-71
2021/06/09 10:13:15;;;;;;;13.10;12.00;;;24.00;99.90;;;;;;5086911;28;20455;-72
2021/06/09 10:15:47;;;;;;;13.40;12.20;;;24.00;99.90;;;;;;5087126;28;20495;-72
2021/06/09 10:18:18;;;;;;;12.90;11.80;;;24.00;99.90;;;;;;5086330;28;20501;-71
2021/06/09 10:20:52;;;;;;;16.43;14.90;;;24.00;99.90;;;;;;5086569;28;20871;-71
2021/06/09 10:23:35;;;;;;;15.87;14.43;;;24.20;99.90;;;;;;5087005;28;20456;-71
2021/06/09 10:26:10;;;;;;;14.43;13.13;;;24.40;99.90;;;;;;5086257;28;20959;-71
2021/06/09 10:29:28;;;;;;;16.33;14.60;;;24.30;99.90;;;;;;5077738;28;20461;-71
2021/06/09 10:31:58;;;;;;;15.33;13.80;;;24.10;99.90;;;;;;5079119;28;20571;-71
2021/06/09 10:34:27;;;;;;;15.83;14.43;;;23.90;99.90;;;;;;5078936;28;20489;-71
2021/06/09 10:36:57;;;;;;;16.07;14.60;;;23.60;99.90;;;;;;5079355;28;20461;-71
2021/06/09 10:39:29;;;;;;;16.77;15.27;;;23.30;99.90;;;;;;5080834;28;20445;-71
2021/06/09 10:41:58;;;;;;;15.10;13.70;;;23.10;99.90;;;;;;5078707;28;20485;-71
2021/06/09 10:44:31;;;;;;;15.53;14.13;;;23.00;99.90;;;;;;5078897;28;20464;-71
2021/06/09 10:47:03;;;;;;;15.13;13.90;;;22.80;99.90;;;;;;5078729;28;20461;-71
2021/06/09 10:49:33;;;;;;;16.83;15.33;;;22.80;99.90;;;;;;5078537;28;20596;-71
2021/06/09 10:52:02;;;;;;;15.53;14.27;;;22.80;99.90;;;;;;5077983;28;20474;-71
2021/06/09 10:54:30;;;;;;;15.77;14.20;;;22.60;99.90;;;;;;5078489;28;20465;-71
2021/06/09 10:56:57;;;;;;;16.10;14.80;;;22.50;99.90;;;;;;5078756;28;20459;-71
2021/06/09 10:59:26;;;;;;;15.03;13.63;;;22.50;99.90;;;;;;5080170;28;20453;-70
2021/06/09 11:01:57;;;;;;;14.83;13.53;;;22.40;99.90;;;;;;5077903;28;20470;-70
2021/06/09 11:04:24;;;;;;;13.53;12.43;;;22.30;99.90;;;;;;5078407;28;20477;-71
2021/06/09 11:06:53;;;;;;;14.10;12.90;;;22.30;99.90;;;;;;5079328;28;20464;-70
2021/06/09 11:09:23;;;;;;;13.47;12.27;;;22.30;99.90;;;;;;5082727;28;20935;-71
2021/06/09 11:12:20;;;;;;;13.97;12.67;;;22.20;99.90;;;;;;5078928;28;20477;-71
2021/06/09 11:14:50;;;;;;;14.40;12.90;;;22.20;99.90;;;;;;5080600;28;20493;-71
2021/06/09 11:17:34;;;;;;;13.90;12.50;;;22.20;99.90;;;;;;5079051;28;20453;-71
2021/06/09 11:20:30;;;;;;;13.87;12.50;;;22.20;99.90;;;;;;5079232;28;20505;-71
2021/06/09 11:22:59;;;;;;;15.43;13.77;;;22.10;99.90;;;;;;5078506;28;20462;-71
2021/06/09 11:25:30;;;;;;;18.10;16.30;;;22.10;99.90;;;;;;5077427;28;20467;-71
2021/06/09 11:27:59;;;;;;;17.87;16.20;;;22.10;99.90;;;;;;5078671;28;20462;-71
2021/06/09 11:30:45;;;;;;;18.53;16.67;;;22.00;99.90;;;;;;5078029;28;20451;-71
2021/06/09 11:33:29;;;;;;;21.67;19.43;;;21.90;99.90;;;;;;5078394;28;20458;-71
2021/06/09 11:35:57;;;;;;;18.00;16.40;;;21.80;99.90;;;;;;5079421;28;20496;-71
2021/06/09 11:38:26;;;;;;;18.23;16.53;;;21.80;99.90;;;;;;5077225;28;20463;-71
2021/06/09 11:40:58;;;;;;;16.67;15.00;;;21.80;99.90;;;;;;5076773;28;20485;-71
2021/06/09 11:43:26;;;;;;;16.83;15.23;;;21.80;99.90;;;;;;5079083;28;20468;-71
2021/06/09 11:45:57;;;;;;;16.03;14.63;;;21.90;99.90;;;;;;5078369;28;20454;-71
2021/06/09 11:48:25;;;;;;;15.77;14.43;;;22.10;99.90;;;;;;5077607;28;20467;-71
2021/06/09 11:50:54;;;;;;;15.23;13.83;;;22.30;99.90;;;;;;5077583;28;20501;-70
2021/06/09 11:53:40;;;;;;;14.00;12.70;;;22.60;99.90;;;;;;5079030;28;20449;-71
2021/06/09 11:56:17;;;;;;;13.13;11.93;;;23.00;99.90;;;;;;5076700;28;20950;-71
2021/06/09 11:58:44;;;;;;;13.67;12.37;;;23.40;99.90;;;;;;5077515;28;20825;-71
2021/06/09 12:01:13;;;;;;;15.70;14.30;;;23.70;99.90;;;;;;5078031;28;20923;-71
2021/06/09 12:03:40;;;;;;;15.43;14.13;;;23.90;99.90;;;;;;5078325;28;20463;-70
2021/06/09 12:06:16;;;;;;;15.43;14.20;;;24.10;99.90;;;;;;5076825;28;20466;-71
2021/06/09 12:08:43;;;;;;;14.50;13.20;;;24.30;99.90;;;;;;5076603;28;20953;-71
2021/06/09 12:11:10;;;;;;;14.17;12.83;;;24.40;99.90;;;;;;5078295;28;20474;-71
2021/06/09 12:13:37;;;;;;;14.67;13.37;;;24.50;99.90;;;;;;5077749;28;20454;-71
2021/06/09 12:16:10;;;;;;;15.40;14.10;;;24.70;99.90;;;;;;5077566;28;20873;-71
2021/06/09 12:18:36;;;;;;;13.47;12.20;;;24.80;99.90;;;;;;5076818;28;20493;-71
2021/06/09 12:21:08;;;;;;;12.97;11.87;;;24.60;99.90;;;;;;5078653;28;20543;-71
2021/06/09 12:23:35;;;;;;;12.90;11.70;;;24.40;99.90;;;;;;5078283;28;20462;-71
2021/06/09 12:26:03;;;;;;;12.73;11.43;;;24.20;99.90;;;;;;5078004;28;20520;-70
2021/06/09 12:28:31;;;;;;;14.40;13.13;;;23.80;99.90;;;;;;5080812;28;20502;-70
2021/06/09 12:31:00;;;;;;;13.10;12.00;;;23.50;99.90;;;;;;5078826;28;20479;-71
2021/06/09 12:33:37;;;;;;;12.73;11.63;;;23.40;99.90;;;;;;5078193;28;20494;-70
2021/06/09 12:36:08;;;;;;;13.03;11.93;;;23.30;99.90;;;;;;5078692;28;20458;-70
2021/06/09 12:38:34;;;;;;;13.80;12.60;;;23.20;99.90;;;;;;5078603;28;21074;-70
2021/06/09 12:41:01;;;;;;;11.13;10.23;;;23.40;99.90;;;;;;5078153;28;20865;-70
2021/06/09 12:43:27;;;;;;;12.30;11.30;;;23.70;99.90;;;;;;5080135;28;20454;-70